sensor_id;sensor_type;location;lat;lon;timestamp;P1;durP1;ratioP1;P2;durP2;ratioP2
14209;SDS011;7188;56.070;12.698;2022-11-15T00:00:08;43.50;;;26.53;;
14209;SDS011;7188;56.070;12.698;2022-11-15T00:02:34;46.23;;;25.93;;
14209;SDS011;7188;56.070;12.698;2022-11-15T00:05:00;46.00;;;26.17;;
14209;SDS011;7188;56.070;12.698;2022-11-15T00:07:26;48.53;;;26.47;;
14209;SDS011;7188;56.070;12.698;2022-11-15T00:09:51;48.97;;;28.67;;
14209;SDS011;7188;56.070;12.698;2022-11-15T00:12:17;48.77;;;27.27;;
14209;SDS011;7188;56.070;12.698;2022-11-15T00:14:42;47.43;;;26.07;;
14209;SDS011;7188;56.070;12.698;2022-11-15T00:17:08;48.53;;;28.37;;
14209;SDS011;7188;56.070;12.698;2022-11-15T00:19:33;47.97;;;27.67;;
14209;SDS011;7188;56.070;12.698;2022-11-15T00:21:59;49.60;;;28.80;;
14209;SDS011;7188;56.070;12.698;2022-11-15T00:24:25;46.30;;;28.40;;
14209;SDS011;7188;56.070;12.698;2022-11-15T00:26:51;52.08;;;30.60;;
14209;SDS011;7188;56.070;12.698;2022-11-15T00:29:16;52.93;;;29.30;;
14209;SDS011;7188;56.070;12.698;2022-11-15T00:31:42;54.77;;;29.43;;
14209;SDS011;7188;56.070;12.698;2022-11-15T00:34:08;50.13;;;27.77;;
14209;SDS011;7188;56.070;12.698;2022-11-15T00:36:34;48.83;;;27.57;;
14209;SDS011;7188;56.070;12.698;2022-11-15T00:39:00;51.03;;;28.30;;
14209;SDS011;7188;56.070;12.698;2022-11-15T00:41:25;53.20;;;29.27;;
14209;SDS011;7188;56.070;12.698;2022-11-15T00:43:51;48.57;;;28.17;;
14209;SDS011;7188;56.070;12.698;2022-11-15T00:46:17;47.80;;;29.43;;
14209;SDS011;7188;56.070;12.698;2022-11-15T00:48:42;51.77;;;28.90;;
14209;SDS011;7188;56.070;12.698;2022-11-15T00:51:08;49.77;;;28.70;;
14209;SDS011;7188;56.070;12.698;2022-11-15T00:53:33;45.77;;;27.50;;
14209;SDS011;7188;56.070;12.698;2022-11-15T00:55:59;50.70;;;29.33;;
14209;SDS011;7188;56.070;12.698;2022-11-15T00:58:25;47.80;;;27.40;;
14209;SDS011;7188;56.070;12.698;2022-11-15T01:00:50;53.23;;;29.43;;
14209;SDS011;7188;56.070;12.698;2022-11-15T01:03:16;53.23;;;28.73;;
14209;SDS011;7188;56.070;12.698;2022-11-15T01:05:42;51.00;;;29.97;;
14209;SDS011;7188;56.070;12.698;2022-11-15T01:08:11;49.87;;;28.03;;
14209;SDS011;7188;56.070;12.698;2022-11-15T01:10:38;54.53;;;28.63;;
14209;SDS011;7188;56.070;12.698;2022-11-15T01:13:04;49.23;;;28.10;;
14209;SDS011;7188;56.070;12.698;2022-11-15T01:15:29;46.70;;;27.83;;
14209;SDS011;7188;56.070;12.698;2022-11-15T01:17:55;48.20;;;27.93;;
14209;SDS011;7188;56.070;12.698;2022-11-15T01:20:21;48.00;;;26.97;;
14209;SDS011;7188;56.070;12.698;2022-11-15T01:22:46;51.13;;;28.23;;
14209;SDS011;7188;56.070;12.698;2022-11-15T01:25:12;45.17;;;27.27;;
14209;SDS011;7188;56.070;12.698;2022-11-15T01:27:37;50.17;;;27.83;;
14209;SDS011;7188;56.070;12.698;2022-11-15T01:30:03;46.53;;;28.47;;
14209;SDS011;7188;56.070;12.698;2022-11-15T01:32:29;45.13;;;27.43;;
14209;SDS011;7188;56.070;12.698;2022-11-15T01:34:55;45.80;;;28.43;;
14209;SDS011;7188;56.070;12.698;2022-11-15T01:37:20;55.90;;;30.73;;
14209;SDS011;7188;56.070;12.698;2022-11-15T01:39:46;44.23;;;25.40;;
14209;SDS011;7188;56.070;12.698;2022-11-15T01:42:12;48.63;;;29.00;;
14209;SDS011;7188;56.070;12.698;2022-11-15T01:44:48;52.63;;;29.57;;
14209;SDS011;7188;56.070;12.698;2022-11-15T01:49:57;48.03;;;27.83;;
14209;SDS011;7188;56.070;12.698;2022-11-15T01:52:25;47.43;;;26.27;;
14209;SDS011;7188;56.070;12.698;2022-11-15T01:54:54;46.23;;;26.73;;
14209;SDS011;7188;56.070;12.698;2022-11-15T01:57:33;43.33;;;25.73;;
14209;SDS011;7188;56.070;12.698;2022-11-15T02:00:00;50.40;;;28.50;;
14209;SDS011;7188;56.070;12.698;2022-11-15T02:02:26;53.57;;;29.90;;
14209;SDS011;7188;56.070;12.698;2022-11-15T02:04:52;48.87;;;28.43;;
14209;SDS011;7188;56.070;12.698;2022-11-15T02:07:18;49.90;;;27.93;;
14209;SDS011;7188;56.070;12.698;2022-11-15T02:09:46;51.03;;;28.63;;
14209;SDS011;7188;56.070;12.698;2022-11-15T02:12:13;48.33;;;27.63;;
14209;SDS011;7188;56.070;12.698;2022-11-15T02:14:44;44.47;;;27.07;;
14209;SDS011;7188;56.070;12.698;2022-11-15T02:22:51;48.77;;;25.70;;
14209;SDS011;7188;56.070;12.698;2022-11-15T02:28:33;41.97;;;26.93;;
14209;SDS011;7188;56.070;12.698;2022-11-15T02:31:26;44.27;;;25.63;;
14209;SDS011;7188;56.070;12.698;2022-11-15T02:42:18;46.13;;;26.17;;
14209;SDS011;7188;56.070;12.698;2022-11-15T02:45:07;46.63;;;27.80;;
14209;SDS011;7188;56.070;12.698;2022-11-15T02:47:46;47.90;;;26.93;;
14209;SDS011;7188;56.070;12.698;2022-11-15T02:50:18;45.97;;;27.67;;
14209;SDS011;7188;56.070;12.698;2022-11-15T02:52:48;47.23;;;27.07;;
14209;SDS011;7188;56.070;12.698;2022-11-15T03:11:41;43.80;;;25.70;;
14209;SDS011;7188;56.070;12.698;2022-11-15T03:14:21;46.83;;;26.70;;
14209;SDS011;7188;56.070;12.698;2022-11-15T03:19:44;46.27;;;28.43;;
14209;SDS011;7188;56.070;12.698;2022-11-15T03:22:15;50.37;;;27.07;;
14209;SDS011;7188;56.070;12.698;2022-11-15T03:24:43;48.67;;;28.53;;
14209;SDS011;7188;56.070;12.698;2022-11-15T03:27:12;53.00;;;29.87;;
14209;SDS011;7188;56.070;12.698;2022-11-15T03:29:42;48.77;;;29.20;;
14209;SDS011;7188;56.070;12.698;2022-11-15T03:32:13;46.57;;;27.67;;
14209;SDS011;7188;56.070;12.698;2022-11-15T03:37:12;52.20;;;30.30;;
14209;SDS011;7188;56.070;12.698;2022-11-15T03:39:39;49.10;;;28.73;;
14209;SDS011;7188;56.070;12.698;2022-11-15T03:45:36;43.70;;;26.93;;
14209;SDS011;7188;56.070;12.698;2022-11-15T03:47:40;50.93;;;29.57;;
14209;SDS011;7188;56.070;12.698;2022-11-15T03:50:14;53.07;;;30.30;;
14209;SDS011;7188;56.070;12.698;2022-11-15T03:52:46;51.13;;;29.03;;
14209;SDS011;7188;56.070;12.698;2022-11-15T03:55:14;50.07;;;29.13;;
14209;SDS011;7188;56.070;12.698;2022-11-15T03:57:42;55.57;;;29.97;;
14209;SDS011;7188;56.070;12.698;2022-11-15T04:00:08;51.47;;;28.93;;
14209;SDS011;7188;56.070;12.698;2022-11-15T04:02:35;51.37;;;30.80;;
14209;SDS011;7188;56.070;12.698;2022-11-15T04:05:00;49.67;;;29.17;;
14209;SDS011;7188;56.070;12.698;2022-11-15T04:07:41;51.50;;;30.17;;
14209;SDS011;7188;56.070;12.698;2022-11-15T04:10:08;46.87;;;29.17;;
14209;SDS011;7188;56.070;12.698;2022-11-15T04:12:38;51.40;;;28.03;;
14209;SDS011;7188;56.070;12.698;2022-11-15T04:15:09;42.53;;;26.73;;
14209;SDS011;7188;56.070;12.698;2022-11-15T04:23:04;42.30;;;25.87;;
14209;SDS011;7188;56.070;12.698;2022-11-15T04:25:51;42.80;;;25.97;;
14209;SDS011;7188;56.070;12.698;2022-11-15T04:28:18;42.87;;;26.03;;
14209;SDS011;7188;56.070;12.698;2022-11-15T04:30:44;44.33;;;26.70;;
14209;SDS011;7188;56.070;12.698;2022-11-15T04:33:10;44.40;;;25.97;;
14209;SDS011;7188;56.070;12.698;2022-11-15T04:35:36;44.93;;;25.80;;
14209;SDS011;7188;56.070;12.698;2022-11-15T04:38:02;45.43;;;26.43;;
14209;SDS011;7188;56.070;12.698;2022-11-15T04:40:29;42.40;;;26.13;;
14209;SDS011;7188;56.070;12.698;2022-11-15T04:42:55;38.80;;;24.40;;
14209;SDS011;7188;56.070;12.698;2022-11-15T04:45:21;45.03;;;26.00;;
14209;SDS011;7188;56.070;12.698;2022-11-15T04:47:47;43.30;;;25.40;;
14209;SDS011;7188;56.070;12.698;2022-11-15T04:50:13;41.70;;;25.17;;
14209;SDS011;7188;56.070;12.698;2022-11-15T04:52:49;42.17;;;26.97;;
14209;SDS011;7188;56.070;12.698;2022-11-15T04:55:16;44.27;;;25.70;;
14209;SDS011;7188;56.070;12.698;2022-11-15T04:57:42;44.03;;;26.60;;
14209;SDS011;7188;56.070;12.698;2022-11-15T05:00:08;42.33;;;25.67;;
14209;SDS011;7188;56.070;12.698;2022-11-15T05:02:36;42.93;;;25.50;;
14209;SDS011;7188;56.070;12.698;2022-11-15T05:05:20;39.53;;;24.47;;
14209;SDS011;7188;56.070;12.698;2022-11-15T05:07:46;41.23;;;26.13;;
14209;SDS011;7188;56.070;12.698;2022-11-15T05:10:12;43.07;;;25.93;;
14209;SDS011;7188;56.070;12.698;2022-11-15T05:12:38;43.30;;;26.60;;
14209;SDS011;7188;56.070;12.698;2022-11-15T05:15:03;41.13;;;25.07;;
14209;SDS011;7188;56.070;12.698;2022-11-15T05:17:29;46.03;;;26.43;;
14209;SDS011;7188;56.070;12.698;2022-11-15T05:19:55;38.87;;;23.97;;
14209;SDS011;7188;56.070;12.698;2022-11-15T05:22:21;39.50;;;24.57;;
14209;SDS011;7188;56.070;12.698;2022-11-15T05:24:46;42.60;;;26.73;;
14209;SDS011;7188;56.070;12.698;2022-11-15T05:27:12;40.40;;;24.60;;
14209;SDS011;7188;56.070;12.698;2022-11-15T05:29:37;40.33;;;25.73;;
14209;SDS011;7188;56.070;12.698;2022-11-15T05:32:04;42.70;;;25.10;;
14209;SDS011;7188;56.070;12.698;2022-11-15T05:34:31;41.70;;;24.80;;
14209;SDS011;7188;56.070;12.698;2022-11-15T05:36:57;41.83;;;25.50;;
14209;SDS011;7188;56.070;12.698;2022-11-15T05:39:23;44.40;;;26.23;;
14209;SDS011;7188;56.070;12.698;2022-11-15T05:41:51;41.63;;;25.40;;
14209;SDS011;7188;56.070;12.698;2022-11-15T05:44:24;46.40;;;26.70;;
14209;SDS011;7188;56.070;12.698;2022-11-15T05:46:51;42.17;;;24.87;;
14209;SDS011;7188;56.070;12.698;2022-11-15T05:49:20;43.80;;;25.30;;
14209;SDS011;7188;56.070;12.698;2022-11-15T05:51:51;38.50;;;24.10;;
14209;SDS011;7188;56.070;12.698;2022-11-15T05:54:18;39.70;;;25.30;;
14209;SDS011;7188;56.070;12.698;2022-11-15T05:56:44;42.73;;;25.90;;
14209;SDS011;7188;56.070;12.698;2022-11-15T05:59:10;43.17;;;27.10;;
14209;SDS011;7188;56.070;12.698;2022-11-15T06:01:36;41.60;;;25.90;;
14209;SDS011;7188;56.070;12.698;2022-11-15T06:04:03;40.97;;;26.50;;
14209;SDS011;7188;56.070;12.698;2022-11-15T06:06:29;40.73;;;24.97;;
14209;SDS011;7188;56.070;12.698;2022-11-15T06:08:54;42.43;;;26.67;;
14209;SDS011;7188;56.070;12.698;2022-11-15T06:11:20;45.43;;;26.53;;
14209;SDS011;7188;56.070;12.698;2022-11-15T06:13:45;44.17;;;25.77;;
14209;SDS011;7188;56.070;12.698;2022-11-15T06:16:11;44.70;;;26.67;;
14209;SDS011;7188;56.070;12.698;2022-11-15T06:18:37;47.57;;;26.17;;
14209;SDS011;7188;56.070;12.698;2022-11-15T06:21:04;43.60;;;26.80;;
14209;SDS011;7188;56.070;12.698;2022-11-15T06:23:33;42.80;;;25.33;;
14209;SDS011;7188;56.070;12.698;2022-11-15T06:26:00;43.13;;;27.30;;
14209;SDS011;7188;56.070;12.698;2022-11-15T06:28:30;39.40;;;25.87;;
14209;SDS011;7188;56.070;12.698;2022-11-15T06:30:56;44.17;;;26.60;;
14209;SDS011;7188;56.070;12.698;2022-11-15T06:33:30;37.50;;;23.40;;
14209;SDS011;7188;56.070;12.698;2022-11-15T06:35:59;42.13;;;25.20;;
14209;SDS011;7188;56.070;12.698;2022-11-15T06:38:26;39.87;;;24.37;;
14209;SDS011;7188;56.070;12.698;2022-11-15T06:40:51;42.37;;;24.87;;
14209;SDS011;7188;56.070;12.698;2022-11-15T06:43:17;43.80;;;26.73;;
14209;SDS011;7188;56.070;12.698;2022-11-15T06:45:42;41.67;;;24.87;;
14209;SDS011;7188;56.070;12.698;2022-11-15T06:48:08;40.50;;;25.20;;
14209;SDS011;7188;56.070;12.698;2022-11-15T06:50:33;39.47;;;23.57;;
14209;SDS011;7188;56.070;12.698;2022-11-15T06:53:08;37.93;;;23.77;;
14209;SDS011;7188;56.070;12.698;2022-11-15T06:55:33;39.63;;;25.27;;
14209;SDS011;7188;56.070;12.698;2022-11-15T06:57:59;44.33;;;25.57;;
14209;SDS011;7188;56.070;12.698;2022-11-15T07:00:25;41.13;;;24.93;;
14209;SDS011;7188;56.070;12.698;2022-11-15T07:02:50;45.73;;;26.07;;
14209;SDS011;7188;56.070;12.698;2022-11-15T07:05:16;41.37;;;25.67;;
14209;SDS011;7188;56.070;12.698;2022-11-15T07:07:42;43.07;;;24.67;;
14209;SDS011;7188;56.070;12.698;2022-11-15T07:10:08;37.73;;;24.83;;
14209;SDS011;7188;56.070;12.698;2022-11-15T07:12:34;44.27;;;26.07;;
14209;SDS011;7188;56.070;12.698;2022-11-15T07:14:59;42.17;;;25.60;;
14209;SDS011;7188;56.070;12.698;2022-11-15T07:17:25;38.00;;;24.00;;
14209;SDS011;7188;56.070;12.698;2022-11-15T07:19:51;41.30;;;27.23;;
14209;SDS011;7188;56.070;12.698;2022-11-15T07:22:16;44.83;;;25.53;;
14209;SDS011;7188;56.070;12.698;2022-11-15T07:24:42;39.90;;;25.37;;
14209;SDS011;7188;56.070;12.698;2022-11-15T07:27:07;43.40;;;25.30;;
14209;SDS011;7188;56.070;12.698;2022-11-15T07:29:33;42.87;;;25.40;;
14209;SDS011;7188;56.070;12.698;2022-11-15T07:31:58;38.80;;;22.77;;
14209;SDS011;7188;56.070;12.698;2022-11-15T07:34:24;40.57;;;25.37;;
14209;SDS011;7188;56.070;12.698;2022-11-15T07:36:50;45.87;;;23.97;;
14209;SDS011;7188;56.070;12.698;2022-11-15T07:39:15;39.60;;;25.83;;
14209;SDS011;7188;56.070;12.698;2022-11-15T07:41:41;40.07;;;24.23;;
14209;SDS011;7188;56.070;12.698;2022-11-15T07:44:08;38.17;;;22.83;;
14209;SDS011;7188;56.070;12.698;2022-11-15T07:46:34;39.10;;;24.47;;
14209;SDS011;7188;56.070;12.698;2022-11-15T07:48:59;38.47;;;24.20;;
14209;SDS011;7188;56.070;12.698;2022-11-15T07:51:25;39.97;;;25.00;;
14209;SDS011;7188;56.070;12.698;2022-11-15T07:53:50;35.13;;;22.03;;
14209;SDS011;7188;56.070;12.698;2022-11-15T07:56:16;36.17;;;22.97;;
14209;SDS011;7188;56.070;12.698;2022-11-15T07:58:42;36.57;;;23.53;;
14209;SDS011;7188;56.070;12.698;2022-11-15T08:01:08;38.17;;;24.77;;
14209;SDS011;7188;56.070;12.698;2022-11-15T08:03:35;38.43;;;22.57;;
14209;SDS011;7188;56.070;12.698;2022-11-15T08:06:01;36.17;;;24.40;;
14209;SDS011;7188;56.070;12.698;2022-11-15T08:08:27;36.90;;;24.07;;
14209;SDS011;7188;56.070;12.698;2022-11-15T08:10:54;36.83;;;23.27;;
14209;SDS011;7188;56.070;12.698;2022-11-15T08:13:19;35.83;;;24.03;;
14209;SDS011;7188;56.070;12.698;2022-11-15T08:15:46;38.87;;;24.57;;
14209;SDS011;7188;56.070;12.698;2022-11-15T08:18:15;32.37;;;22.13;;
14209;SDS011;7188;56.070;12.698;2022-11-15T08:20:42;37.67;;;23.73;;
14209;SDS011;7188;56.070;12.698;2022-11-15T08:23:09;36.70;;;22.87;;
14209;SDS011;7188;56.070;12.698;2022-11-15T08:25:36;35.17;;;22.70;;
14209;SDS011;7188;56.070;12.698;2022-11-15T08:28:03;35.30;;;22.10;;
14209;SDS011;7188;56.070;12.698;2022-11-15T08:30:33;33.50;;;21.80;;
14209;SDS011;7188;56.070;12.698;2022-11-15T08:33:02;34.97;;;24.10;;
14209;SDS011;7188;56.070;12.698;2022-11-15T08:35:27;33.07;;;21.53;;
14209;SDS011;7188;56.070;12.698;2022-11-15T08:37:53;34.73;;;23.17;;
14209;SDS011;7188;56.070;12.698;2022-11-15T08:40:24;33.17;;;22.50;;
14209;SDS011;7188;56.070;12.698;2022-11-15T08:42:51;35.03;;;22.60;;
14209;SDS011;7188;56.070;12.698;2022-11-15T08:45:17;35.73;;;23.17;;
14209;SDS011;7188;56.070;12.698;2022-11-15T08:47:43;34.30;;;22.00;;
14209;SDS011;7188;56.070;12.698;2022-11-15T08:50:08;34.93;;;22.90;;
14209;SDS011;7188;56.070;12.698;2022-11-15T08:52:34;34.00;;;21.63;;
14209;SDS011;7188;56.070;12.698;2022-11-15T08:54:59;36.73;;;23.37;;
14209;SDS011;7188;56.070;12.698;2022-11-15T08:57:28;40.17;;;23.60;;
14209;SDS011;7188;56.070;12.698;2022-11-15T08:59:55;35.10;;;22.37;;
14209;SDS011;7188;56.070;12.698;2022-11-15T09:02:20;33.20;;;21.20;;
14209;SDS011;7188;56.070;12.698;2022-11-15T09:04:46;35.33;;;22.90;;
14209;SDS011;7188;56.070;12.698;2022-11-15T09:07:13;32.60;;;22.47;;
14209;SDS011;7188;56.070;12.698;2022-11-15T09:09:39;32.47;;;21.43;;
14209;SDS011;7188;56.070;12.698;2022-11-15T09:12:05;38.50;;;23.37;;
14209;SDS011;7188;56.070;12.698;2022-11-15T09:14:33;34.80;;;23.60;;
14209;SDS011;7188;56.070;12.698;2022-11-15T09:17:00;34.97;;;22.63;;
14209;SDS011;7188;56.070;12.698;2022-11-15T09:19:26;35.90;;;22.27;;
14209;SDS011;7188;56.070;12.698;2022-11-15T09:21:52;37.03;;;23.23;;
14209;SDS011;7188;56.070;12.698;2022-11-15T09:24:17;34.20;;;22.30;;
14209;SDS011;7188;56.070;12.698;2022-11-15T09:26:43;33.53;;;22.23;;
14209;SDS011;7188;56.070;12.698;2022-11-15T09:29:09;33.37;;;22.33;;
14209;SDS011;7188;56.070;12.698;2022-11-15T09:31:35;34.07;;;22.30;;
14209;SDS011;7188;56.070;12.698;2022-11-15T09:34:00;34.83;;;23.57;;
14209;SDS011;7188;56.070;12.698;2022-11-15T09:36:26;33.23;;;22.13;;
14209;SDS011;7188;56.070;12.698;2022-11-15T09:38:51;34.50;;;22.50;;
14209;SDS011;7188;56.070;12.698;2022-11-15T09:49:15;34.90;;;23.20;;
14209;SDS011;7188;56.070;12.698;2022-11-15T09:51:45;34.27;;;22.40;;
14209;SDS011;7188;56.070;12.698;2022-11-15T09:57:09;33.30;;;22.20;;
14209;SDS011;7188;56.070;12.698;2022-11-15T10:02:37;37.40;;;23.80;;
14209;SDS011;7188;56.070;12.698;2022-11-15T10:05:22;35.07;;;22.60;;
14209;SDS011;7188;56.070;12.698;2022-11-15T10:10:43;34.63;;;23.10;;
14209;SDS011;7188;56.070;12.698;2022-11-15T10:13:28;34.20;;;23.50;;
14209;SDS011;7188;56.070;12.698;2022-11-15T10:16:04;37.37;;;23.43;;
14209;SDS011;7188;56.070;12.698;2022-11-15T10:21:32;32.30;;;21.43;;
14209;SDS011;7188;56.070;12.698;2022-11-15T10:24:00;35.50;;;24.00;;
14209;SDS011;7188;56.070;12.698;2022-11-15T10:26:26;35.03;;;22.57;;
14209;SDS011;7188;56.070;12.698;2022-11-15T10:28:53;36.87;;;23.83;;
14209;SDS011;7188;56.070;12.698;2022-11-15T10:31:26;36.93;;;23.07;;
14209;SDS011;7188;56.070;12.698;2022-11-15T10:34:11;38.43;;;23.57;;
14209;SDS011;7188;56.070;12.698;2022-11-15T10:36:58;34.40;;;24.40;;
14209;SDS011;7188;56.070;12.698;2022-11-15T10:39:25;34.20;;;23.67;;
14209;SDS011;7188;56.070;12.698;2022-11-15T10:41:51;31.47;;;21.37;;
14209;SDS011;7188;56.070;12.698;2022-11-15T10:46:46;31.27;;;21.10;;
14209;SDS011;7188;56.070;12.698;2022-11-15T10:49:28;37.03;;;23.63;;
14209;SDS011;7188;56.070;12.698;2022-11-15T10:54:23;38.13;;;24.23;;
14209;SDS011;7188;56.070;12.698;2022-11-15T10:56:55;33.17;;;23.07;;
14209;SDS011;7188;56.070;12.698;2022-11-15T10:59:27;32.77;;;22.53;;
14209;SDS011;7188;56.070;12.698;2022-11-15T11:01:55;35.23;;;24.07;;
14209;SDS011;7188;56.070;12.698;2022-11-15T11:04:21;32.93;;;22.73;;
14209;SDS011;7188;56.070;12.698;2022-11-15T11:06:57;36.33;;;23.23;;
14209;SDS011;7188;56.070;12.698;2022-11-15T11:09:35;34.70;;;23.67;;
14209;SDS011;7188;56.070;12.698;2022-11-15T11:12:03;36.60;;;24.57;;
14209;SDS011;7188;56.070;12.698;2022-11-15T11:14:35;33.90;;;22.57;;
14209;SDS011;7188;56.070;12.698;2022-11-15T11:22:17;36.37;;;24.53;;
14209;SDS011;7188;56.070;12.698;2022-11-15T11:25:07;36.13;;;24.37;;
14209;SDS011;7188;56.070;12.698;2022-11-15T11:27:57;32.13;;;22.27;;
14209;SDS011;7188;56.070;12.698;2022-11-15T11:33:21;41.53;;;26.30;;
14209;SDS011;7188;56.070;12.698;2022-11-15T11:49:34;40.90;;;24.03;;
14209;SDS011;7188;56.070;12.698;2022-11-15T11:58:22;38.50;;;24.40;;
14209;SDS011;7188;56.070;12.698;2022-11-15T12:00:48;41.53;;;24.43;;
14209;SDS011;7188;56.070;12.698;2022-11-15T12:03:21;38.17;;;24.83;;
14209;SDS011;7188;56.070;12.698;2022-11-15T12:06:10;37.17;;;24.23;;
14209;SDS011;7188;56.070;12.698;2022-11-15T12:08:58;37.40;;;24.30;;
14209;SDS011;7188;56.070;12.698;2022-11-15T12:17:12;34.97;;;22.07;;
14209;SDS011;7188;56.070;12.698;2022-11-15T12:19:39;34.30;;;22.73;;
14209;SDS011;7188;56.070;12.698;2022-11-15T12:22:17;35.93;;;22.40;;
14209;SDS011;7188;56.070;12.698;2022-11-15T12:24:51;32.67;;;21.77;;
14209;SDS011;7188;56.070;12.698;2022-11-15T12:30:03;34.80;;;22.37;;
14209;SDS011;7188;56.070;12.698;2022-11-15T12:32:38;31.93;;;20.60;;
14209;SDS011;7188;56.070;12.698;2022-11-15T12:35:24;33.90;;;22.00;;
14209;SDS011;7188;56.070;12.698;2022-11-15T12:37:59;28.93;;;19.90;;
14209;SDS011;7188;56.070;12.698;2022-11-15T12:40:25;34.17;;;20.27;;
14209;SDS011;7188;56.070;12.698;2022-11-15T12:43:40;33.27;;;20.33;;
14209;SDS011;7188;56.070;12.698;2022-11-15T13:04:42;24.10;;;15.80;;
14209;SDS011;7188;56.070;12.698;2022-11-15T13:07:08;23.03;;;16.23;;
14209;SDS011;7188;56.070;12.698;2022-11-15T13:09:59;21.43;;;15.80;;
14209;SDS011;7188;56.070;12.698;2022-11-15T13:14:54;22.83;;;16.73;;
14209;SDS011;7188;56.070;12.698;2022-11-15T13:30:34;19.20;;;14.17;;
14209;SDS011;7188;56.070;12.698;2022-11-15T13:33:07;18.40;;;13.83;;
14209;SDS011;7188;56.070;12.698;2022-11-15T13:35:36;18.47;;;13.87;;
14209;SDS011;7188;56.070;12.698;2022-11-15T13:38:05;19.97;;;14.63;;
14209;SDS011;7188;56.070;12.698;2022-11-15T13:40:34;18.53;;;14.07;;
14209;SDS011;7188;56.070;12.698;2022-11-15T13:43:17;19.17;;;13.50;;
14209;SDS011;7188;56.070;12.698;2022-11-15T13:48:46;17.17;;;12.13;;
14209;SDS011;7188;56.070;12.698;2022-11-15T13:53:54;16.53;;;12.00;;
14209;SDS011;7188;56.070;12.698;2022-11-15T13:56:27;17.10;;;12.53;;
14209;SDS011;7188;56.070;12.698;2022-11-15T13:58:53;16.50;;;12.53;;
14209;SDS011;7188;56.070;12.698;2022-11-15T14:01:20;15.17;;;11.33;;
14209;SDS011;7188;56.070;12.698;2022-11-15T14:03:50;16.90;;;12.67;;
14209;SDS011;7188;56.070;12.698;2022-11-15T14:06:23;15.50;;;11.93;;
14209;SDS011;7188;56.070;12.698;2022-11-15T14:11:34;16.37;;;12.57;;
14209;SDS011;7188;56.070;12.698;2022-11-15T14:16:41;18.27;;;13.20;;
14209;SDS011;7188;56.070;12.698;2022-11-15T14:19:38;16.63;;;12.77;;
14209;SDS011;7188;56.070;12.698;2022-11-15T14:22:14;18.30;;;13.60;;
14209;SDS011;7188;56.070;12.698;2022-11-15T14:25:03;16.90;;;13.30;;
14209;SDS011;7188;56.070;12.698;2022-11-15T14:27:41;16.30;;;12.20;;
14209;SDS011;7188;56.070;12.698;2022-11-15T14:30:15;19.10;;;12.60;;
14209;SDS011;7188;56.070;12.698;2022-11-15T14:32:44;17.23;;;13.27;;
14209;SDS011;7188;56.070;12.698;2022-11-15T14:35:12;15.30;;;12.77;;
14209;SDS011;7188;56.070;12.698;2022-11-15T14:37:41;16.57;;;12.27;;
14209;SDS011;7188;56.070;12.698;2022-11-15T14:40:08;17.57;;;13.63;;
14209;SDS011;7188;56.070;12.698;2022-11-15T14:42:45;16.33;;;12.70;;
14209;SDS011;7188;56.070;12.698;2022-11-15T14:45:12;13.90;;;11.50;;
14209;SDS011;7188;56.070;12.698;2022-11-15T14:47:40;18.10;;;13.07;;
14209;SDS011;7188;56.070;12.698;2022-11-15T14:50:06;17.03;;;13.03;;
14209;SDS011;7188;56.070;12.698;2022-11-15T14:52:35;17.83;;;12.83;;
14209;SDS011;7188;56.070;12.698;2022-11-15T14:55:02;16.40;;;12.07;;
14209;SDS011;7188;56.070;12.698;2022-11-15T14:57:29;16.53;;;12.23;;
14209;SDS011;7188;56.070;12.698;2022-11-15T14:59:55;14.00;;;11.53;;
14209;SDS011;7188;56.070;12.698;2022-11-15T15:02:22;13.97;;;10.90;;
14209;SDS011;7188;56.070;12.698;2022-11-15T15:04:49;15.30;;;11.60;;
14209;SDS011;7188;56.070;12.698;2022-11-15T15:07:16;15.90;;;12.00;;
14209;SDS011;7188;56.070;12.698;2022-11-15T15:09:42;16.97;;;12.93;;
14209;SDS011;7188;56.070;12.698;2022-11-15T15:12:15;16.33;;;12.47;;
14209;SDS011;7188;56.070;12.698;2022-11-15T15:14:42;16.63;;;12.87;;
14209;SDS011;7188;56.070;12.698;2022-11-15T15:17:08;15.33;;;11.63;;
14209;SDS011;7188;56.070;12.698;2022-11-15T15:19:34;18.60;;;13.77;;
14209;SDS011;7188;56.070;12.698;2022-11-15T15:21:59;16.37;;;12.77;;
14209;SDS011;7188;56.070;12.698;2022-11-15T15:24:25;16.13;;;12.03;;
14209;SDS011;7188;56.070;12.698;2022-11-15T15:26:51;17.83;;;12.53;;
14209;SDS011;7188;56.070;12.698;2022-11-15T15:29:16;16.57;;;12.77;;
14209;SDS011;7188;56.070;12.698;2022-11-15T15:31:42;15.87;;;11.27;;
14209;SDS011;7188;56.070;12.698;2022-11-15T15:34:07;11.70;;;9.70;;
14209;SDS011;7188;56.070;12.698;2022-11-15T15:36:33;10.37;;;8.40;;
14209;SDS011;7188;56.070;12.698;2022-11-15T15:38:59;11.13;;;8.23;;
14209;SDS011;7188;56.070;12.698;2022-11-15T15:41:24;11.20;;;8.43;;
14209;SDS011;7188;56.070;12.698;2022-11-15T15:43:50;10.90;;;7.47;;
14209;SDS011;7188;56.070;12.698;2022-11-15T15:46:16;8.67;;;7.63;;
14209;SDS011;7188;56.070;12.698;2022-11-15T15:48:43;9.53;;;7.53;;
14209;SDS011;7188;56.070;12.698;2022-11-15T15:51:10;10.57;;;7.33;;
14209;SDS011;7188;56.070;12.698;2022-11-15T15:53:36;7.60;;;6.80;;
14209;SDS011;7188;56.070;12.698;2022-11-15T15:56:03;7.63;;;6.60;;
14209;SDS011;7188;56.070;12.698;2022-11-15T15:58:29;10.07;;;7.63;;
14209;SDS011;7188;56.070;12.698;2022-11-15T16:00:54;8.80;;;6.43;;
14209;SDS011;7188;56.070;12.698;2022-11-15T16:03:20;9.33;;;6.57;;
14209;SDS011;7188;56.070;12.698;2022-11-15T16:05:45;10.63;;;7.37;;
14209;SDS011;7188;56.070;12.698;2022-11-15T16:08:21;7.87;;;5.97;;
14209;SDS011;7188;56.070;12.698;2022-11-15T16:10:48;8.23;;;6.73;;
14209;SDS011;7188;56.070;12.698;2022-11-15T16:13:14;7.83;;;6.67;;
14209;SDS011;7188;56.070;12.698;2022-11-15T16:15:40;9.90;;;8.03;;
14209;SDS011;7188;56.070;12.698;2022-11-15T16:18:08;8.47;;;6.43;;
14209;SDS011;7188;56.070;12.698;2022-11-15T16:20:40;9.03;;;7.00;;
14209;SDS011;7188;56.070;12.698;2022-11-15T16:23:13;11.77;;;7.00;;
14209;SDS011;7188;56.070;12.698;2022-11-15T16:28:31;8.30;;;6.90;;
14209;SDS011;7188;56.070;12.698;2022-11-15T16:33:27;8.17;;;6.70;;
14209;SDS011;7188;56.070;12.698;2022-11-15T16:35:52;7.60;;;6.70;;
14209;SDS011;7188;56.070;12.698;2022-11-15T16:38:18;8.40;;;6.37;;
14209;SDS011;7188;56.070;12.698;2022-11-15T16:40:44;7.90;;;6.67;;
14209;SDS011;7188;56.070;12.698;2022-11-15T16:43:09;7.50;;;6.00;;
14209;SDS011;7188;56.070;12.698;2022-11-15T16:45:35;9.40;;;6.63;;
14209;SDS011;7188;56.070;12.698;2022-11-15T16:48:01;8.63;;;6.27;;
14209;SDS011;7188;56.070;12.698;2022-11-15T16:50:28;7.90;;;6.43;;
14209;SDS011;7188;56.070;12.698;2022-11-15T16:52:57;8.70;;;6.03;;
14209;SDS011;7188;56.070;12.698;2022-11-15T16:55:27;8.17;;;6.90;;
14209;SDS011;7188;56.070;12.698;2022-11-15T16:57:54;8.67;;;6.23;;
14209;SDS011;7188;56.070;12.698;2022-11-15T17:00:22;9.83;;;6.70;;
14209;SDS011;7188;56.070;12.698;2022-11-15T17:02:49;7.30;;;6.23;;
14209;SDS011;7188;56.070;12.698;2022-11-15T17:05:16;7.60;;;5.40;;
14209;SDS011;7188;56.070;12.698;2022-11-15T17:07:45;6.80;;;5.60;;
14209;SDS011;7188;56.070;12.698;2022-11-15T17:10:13;7.93;;;5.60;;
14209;SDS011;7188;56.070;12.698;2022-11-15T17:12:38;7.83;;;6.13;;